Details From ZSQD - Liuting
To VTSP - Phuket Intl
Flight Number -
Tags Generated
Created
Modified
Stats Distance 2,079 nm / 3,849 km
Max Altitude 0 ft / 0 m
Waypoints 5
Social Downloads 1
Likes 0
Share VATSIM

Download

Looking for another format? Having issues loading an existing format? Contact us
Advertisement - Login to hide

Notes

Generated

Route

ZSQD BK HAPPY PUT VTSP

ID Type Via Altitude Latitude Longitude Leg Dist Tot Dist Heading (true) Name
O ZSQD APT - 0 ft / 0 m 36.28099˚ 120.36970˚ - 0 nm - -
BK NDB - 0 ft / 0 m 20.80139˚ 106.65806˚ 1175 nm 1175 nm 221° / 215° CATBI NDB
HAPPY FIX - 0 ft / 0 m 14.64629˚ 102.24744˚ 447 nm 1622 nm 215° / 214° -
PUT VOR - 0 ft / 0 m 8.11523˚ 98.30630˚ 455 nm 2078 nm 211° / 210° PHUKET VOR-DME
O VTSP APT - 0 ft / 0 m 8.11189˚ 98.30327˚ 0 nm 2078 nm 222° / 222° -

Altitude Profile

Advertisement - Login to hide

Weather


0- 5 10 15 20 25 30 35+ Temperature / ° C

Clouds and Precipitation
Forecast for 2017-12-15 12:00 UTC. Updated an hour ago

Ground ~20,000 ft ~40,000 ft Winds

ZSQD

Details ICAO ZSQD (TAO)
Name LIUTING
Region China
Timezone Asia/Shanghai (UTC+8.0)
Stats Elevation 33 ft / 10 m (AMSL)
Location 36.266107° 120.374435°
Runways 1
Magnetic Variation 6.995° W

METAR

ZSQD 151000Z 32003MPS 4000 BR BKN033 01/M03 Q1031 NOSIG

Decode

TAF

Not found

Departure Runways

ID Width Length Bearing (true) Bearing (mag) Surface Threshold Offset Overrun Length
17 148 ft / 45 m 11,211 ft / 3,417 m 165.61° 172.61° Concrete 0 ft / 0 m 200 ft / 61 m
35 148 ft / 45 m 11,211 ft / 3,417 m 345.61° 352.61° Concrete 0 ft / 0 m 200 ft / 61 m

VTSP

Details ICAO VTSP (HKT)
Name Phuket Intl
Region Thailand
Timezone Asia/Bangkok (UTC+7.0)
Stats Elevation 82 ft / 25 m (AMSL)
Location 8.113199° 98.316871°
Runways 1
Magnetic Variation 0.433° W

METAR

VTSP 151000Z 30009KT 260V340 9000 FEW020 SCT100 30/22 Q1010 NOSIG

Decode

TAF

TAF VTSP 150500Z 1506/1612 28008KT 9999 FEW020 BECMG 1516/1518 VRB02KT BECMG 1520/1522 08006KT PROB40 TEMPO 1608/1612 VRB10G20KT 3000 TSRA FEW016CB SCT020 BKN100

Decode

Destination Runways

ID Width Length Bearing (true) Bearing (mag) Surface Threshold Offset Overrun Length
09 148 ft / 45 m 9,870 ft / 3,008 m 84.45° 84.88° Asphalt 0 ft / 0 m 197 ft / 60 m
27 148 ft / 45 m 9,870 ft / 3,008 m 264.46° 264.89° Asphalt 0 ft / 0 m 197 ft / 60 m

Approach Navaids

Runway Type Ident Frequency Range Bearing (true) Bearing (mag) Slope Elevation
27 Localiser IPKT 109.90 MHz 18 nm / 33 km 263.45° 263.89° - 19 ft / 6 m (AMSL)
27 Glidescope IPKT 109.90 MHz 10 nm / 19 km 263.45° 263.89° 3.20° 82 ft / 25 m (AMSL)
27 DME IPKT 109.90 MHz 18 nm / 33 km - - - 82 ft / 25 m (AMSL)